sensor_id;sensor_type;location;lat;lon;timestamp;pressure;altitude;pressure_sealevel;temperature;humidity
58843;BME280;44614;54.356;10.100;2022-09-21T00:01:03;102351.09;;;7.41;86.62
58843;BME280;44614;54.356;10.100;2022-09-21T00:03:28;102347.31;;;7.42;86.49
58843;BME280;44614;54.356;10.100;2022-09-21T00:06:00;102342.03;;;7.41;86.45
58843;BME280;44614;54.356;10.100;2022-09-21T00:08:25;102354.16;;;7.38;86.40
58843;BME280;44614;54.356;10.100;2022-09-21T00:10:50;102356.19;;;7.36;86.48
58843;BME280;44614;54.356;10.100;2022-09-21T00:13:16;102373.59;;;7.35;86.49
58843;BME280;44614;54.356;10.100;2022-09-21T00:15:43;102354.66;;;7.33;86.42
58843;BME280;44614;54.356;10.100;2022-09-21T00:18:08;102352.06;;;7.32;86.21
58843;BME280;44614;54.356;10.100;2022-09-21T00:20:34;102355.16;;;7.29;86.33
58843;BME280;44614;54.356;10.100;2022-09-21T00:22:59;102353.41;;;7.28;86.14
58843;BME280;44614;54.356;10.100;2022-09-21T00:25:24;102353.72;;;7.25;86.23
58843;BME280;44614;54.356;10.100;2022-09-21T00:27:49;102359.56;;;7.22;86.42
58843;BME280;44614;54.356;10.100;2022-09-21T00:30:16;102354.41;;;7.19;86.44
58843;BME280;44614;54.356;10.100;2022-09-21T00:32:41;102360.03;;;7.17;86.41
58843;BME280;44614;54.356;10.100;2022-09-21T00:35:07;102356.63;;;7.15;86.53
58843;BME280;44614;54.356;10.100;2022-09-21T00:37:33;102360.53;;;7.13;86.50
58843;BME280;44614;54.356;10.100;2022-09-21T00:39:58;102357.09;;;7.11;86.63
58843;BME280;44614;54.356;10.100;2022-09-21T00:42:26;102364.59;;;7.08;86.72
58843;BME280;44614;54.356;10.100;2022-09-21T00:44:51;102355.00;;;7.04;86.66
58843;BME280;44614;54.356;10.100;2022-09-21T00:47:21;102357.94;;;7.03;86.73
58843;BME280;44614;54.356;10.100;2022-09-21T00:49:47;102356.19;;;7.02;86.80
58843;BME280;44614;54.356;10.100;2022-09-21T00:52:14;102354.66;;;6.99;86.75
58843;BME280;44614;54.356;10.100;2022-09-21T00:55:23;102362.00;;;6.99;86.89
58843;BME280;44614;54.356;10.100;2022-09-21T00:57:29;102357.53;;;6.98;86.81
58843;BME280;44614;54.356;10.100;2022-09-21T00:59:56;102360.44;;;6.96;86.70
58843;BME280;44614;54.356;10.100;2022-09-21T01:02:22;102359.72;;;6.94;86.65
58843;BME280;44614;54.356;10.100;2022-09-21T01:04:47;102362.47;;;6.94;86.75
58843;BME280;44614;54.356;10.100;2022-09-21T01:07:14;102361.78;;;6.92;86.85
58843;BME280;44614;54.356;10.100;2022-09-21T01:09:42;102365.53;;;6.91;86.97
58843;BME280;44614;54.356;10.100;2022-09-21T01:12:13;102358.53;;;6.89;86.99
58843;BME280;44614;54.356;10.100;2022-09-21T01:14:46;102367.88;;;6.86;86.97
58843;BME280;44614;54.356;10.100;2022-09-21T01:17:20;102370.78;;;6.84;86.85
58843;BME280;44614;54.356;10.100;2022-09-21T01:27:30;102369.72;;;6.77;87.15
58843;BME280;44614;54.356;10.100;2022-09-21T01:30:10;102364.44;;;6.76;87.17
58843;BME280;44614;54.356;10.100;2022-09-21T01:32:38;102368.31;;;6.73;87.15
58843;BME280;44614;54.356;10.100;2022-09-21T01:35:09;102370.34;;;6.71;87.01
58843;BME280;44614;54.356;10.100;2022-09-21T01:40:03;102359.38;;;6.63;87.10
58843;BME280;44614;54.356;10.100;2022-09-21T01:42:32;102365.31;;;6.58;87.22
58843;BME280;44614;54.356;10.100;2022-09-21T01:44:59;102367.19;;;6.58;87.39
58843;BME280;44614;54.356;10.100;2022-09-21T01:47:26;102363.63;;;6.57;87.47
58843;BME280;44614;54.356;10.100;2022-09-21T01:49:55;102369.06;;;6.57;87.73
58843;BME280;44614;54.356;10.100;2022-09-21T01:54:53;102367.69;;;6.53;87.67
58843;BME280;44614;54.356;10.100;2022-09-21T01:59:51;102366.97;;;6.51;87.58
58843;BME280;44614;54.356;10.100;2022-09-21T02:02:21;102358.97;;;6.50;87.60
58843;BME280;44614;54.356;10.100;2022-09-21T02:04:49;102360.13;;;6.47;87.40
58843;BME280;44614;54.356;10.100;2022-09-21T02:07:15;102369.34;;;6.46;87.58
58843;BME280;44614;54.356;10.100;2022-09-21T02:09:40;102370.34;;;6.45;87.50
58843;BME280;44614;54.356;10.100;2022-09-21T02:12:06;102366.75;;;6.45;87.62
58843;BME280;44614;54.356;10.100;2022-09-21T02:14:31;102366.06;;;6.43;87.64
58843;BME280;44614;54.356;10.100;2022-09-21T02:22:00;102366.53;;;6.38;87.47
58843;BME280;44614;54.356;10.100;2022-09-21T02:27:02;102372.31;;;6.35;87.49
58843;BME280;44614;54.356;10.100;2022-09-21T02:29:36;102364.44;;;6.32;87.48
58843;BME280;44614;54.356;10.100;2022-09-21T02:32:05;102367.47;;;6.29;87.58
58843;BME280;44614;54.356;10.100;2022-09-21T02:34:34;102377.72;;;6.27;87.71
58843;BME280;44614;54.356;10.100;2022-09-21T02:39:46;102372.38;;;6.25;87.34
58843;BME280;44614;54.356;10.100;2022-09-21T02:42:18;102376.31;;;6.23;87.27
58843;BME280;44614;54.356;10.100;2022-09-21T02:44:51;102369.28;;;6.20;87.29
58843;BME280;44614;54.356;10.100;2022-09-21T02:50:13;102374.19;;;6.17;87.28
58843;BME280;44614;54.356;10.100;2022-09-21T02:52:40;102376.25;;;6.15;87.35
58843;BME280;44614;54.356;10.100;2022-09-21T02:55:07;102368.19;;;6.13;87.42
58843;BME280;44614;54.356;10.100;2022-09-21T02:57:33;102370.25;;;6.11;87.46
58843;BME280;44614;54.356;10.100;2022-09-21T02:59:59;102381.28;;;6.09;87.59
58843;BME280;44614;54.356;10.100;2022-09-21T03:02:33;102369.69;;;6.07;87.35
58843;BME280;44614;54.356;10.100;2022-09-21T03:04:59;102381.75;;;6.05;87.46
58843;BME280;44614;54.356;10.100;2022-09-21T03:07:24;102383.81;;;6.03;87.41
58843;BME280;44614;54.356;10.100;2022-09-21T03:09:49;102380.34;;;6.01;87.48
58843;BME280;44614;54.356;10.100;2022-09-21T03:12:14;102383.25;;;5.99;87.50
58843;BME280;44614;54.356;10.100;2022-09-21T03:14:40;102374.34;;;5.97;87.41
58843;BME280;44614;54.356;10.100;2022-09-21T03:17:05;102377.38;;;5.94;87.29
58843;BME280;44614;54.356;10.100;2022-09-21T03:19:30;102384.88;;;5.92;87.40
58843;BME280;44614;54.356;10.100;2022-09-21T03:21:55;102377.81;;;5.90;87.57
58843;BME280;44614;54.356;10.100;2022-09-21T03:24:20;102378.69;;;5.90;87.48
58843;BME280;44614;54.356;10.100;2022-09-21T03:27:09;102387.16;;;5.87;87.66
58843;BME280;44614;54.356;10.100;2022-09-21T03:29:34;102392.63;;;5.87;87.57
58843;BME280;44614;54.356;10.100;2022-09-21T03:31:59;102390.22;;;5.84;87.49
58843;BME280;44614;54.356;10.100;2022-09-21T03:34:25;102381.31;;;5.82;87.55
58843;BME280;44614;54.356;10.100;2022-09-21T03:36:50;102385.22;;;5.79;87.49
58843;BME280;44614;54.356;10.100;2022-09-21T03:39:15;102391.69;;;5.78;87.46
58843;BME280;44614;54.356;10.100;2022-09-21T03:41:41;102386.41;;;5.77;87.42
58843;BME280;44614;54.356;10.100;2022-09-21T03:44:06;102386.53;;;5.75;87.59
58843;BME280;44614;54.356;10.100;2022-09-21T03:46:31;102395.88;;;5.73;87.72
58843;BME280;44614;54.356;10.100;2022-09-21T03:48:59;102391.59;;;5.70;87.65
58843;BME280;44614;54.356;10.100;2022-09-21T03:51:25;102389.88;;;5.69;87.76
58843;BME280;44614;54.356;10.100;2022-09-21T03:53:50;102387.47;;;5.66;87.67
58843;BME280;44614;54.356;10.100;2022-09-21T03:56:15;102397.66;;;5.64;87.63
58843;BME280;44614;54.356;10.100;2022-09-21T03:58:40;102395.09;;;5.62;87.54
58843;BME280;44614;54.356;10.100;2022-09-21T04:01:05;102392.53;;;5.61;87.67
58843;BME280;44614;54.356;10.100;2022-09-21T04:03:31;102398.97;;;5.60;87.83
58843;BME280;44614;54.356;10.100;2022-09-21T04:05:56;102402.72;;;5.59;87.88
58843;BME280;44614;54.356;10.100;2022-09-21T04:08:21;102403.72;;;5.58;87.80
58843;BME280;44614;54.356;10.100;2022-09-21T04:10:47;102398.41;;;5.56;87.80
58843;BME280;44614;54.356;10.100;2022-09-21T04:13:12;102396.69;;;5.55;87.72
58843;BME280;44614;54.356;10.100;2022-09-21T04:15:37;102399.59;;;5.54;87.58
58843;BME280;44614;54.356;10.100;2022-09-21T04:18:03;102395.28;;;5.51;87.53
58843;BME280;44614;54.356;10.100;2022-09-21T04:20:29;102398.00;;;5.51;87.43
58843;BME280;44614;54.356;10.100;2022-09-21T04:22:54;102405.63;;;5.48;87.60
58843;BME280;44614;54.356;10.100;2022-09-21T04:25:19;102398.47;;;5.47;87.58
58843;BME280;44614;54.356;10.100;2022-09-21T04:27:45;102390.44;;;5.45;87.63
58843;BME280;44614;54.356;10.100;2022-09-21T04:30:13;102395.19;;;5.43;87.55
58843;BME280;44614;54.356;10.100;2022-09-21T04:32:40;102395.31;;;5.42;87.68
58843;BME280;44614;54.356;10.100;2022-09-21T04:35:05;102396.34;;;5.41;87.73
58843;BME280;44614;54.356;10.100;2022-09-21T04:37:30;102401.97;;;5.39;87.68
58843;BME280;44614;54.356;10.100;2022-09-21T04:39:56;102405.69;;;5.38;87.94
58843;BME280;44614;54.356;10.100;2022-09-21T04:42:21;102403.97;;;5.37;88.12
58843;BME280;44614;54.356;10.100;2022-09-21T04:44:47;102407.69;;;5.36;88.22
58843;BME280;44614;54.356;10.100;2022-09-21T04:47:12;102411.28;;;5.36;88.25
58843;BME280;44614;54.356;10.100;2022-09-21T04:49:37;102398.81;;;5.34;88.34
58843;BME280;44614;54.356;10.100;2022-09-21T04:52:02;102402.56;;;5.33;88.43
58843;BME280;44614;54.356;10.100;2022-09-21T04:54:28;102410.72;;;5.33;88.42
58843;BME280;44614;54.356;10.100;2022-09-21T04:56:53;102409.19;;;5.30;88.39
58843;BME280;44614;54.356;10.100;2022-09-21T04:59:18;102420.22;;;5.29;88.23
58843;BME280;44614;54.356;10.100;2022-09-21T05:01:43;102415.78;;;5.28;88.24
58843;BME280;44614;54.356;10.100;2022-09-21T05:04:09;102414.06;;;5.27;88.46
58843;BME280;44614;54.356;10.100;2022-09-21T05:06:34;102412.31;;;5.26;88.53
58843;BME280;44614;54.356;10.100;2022-09-21T05:08:59;102411.34;;;5.27;88.35
58843;BME280;44614;54.356;10.100;2022-09-21T05:11:43;102420.50;;;5.26;88.54
58843;BME280;44614;54.356;10.100;2022-09-21T05:14:08;102422.38;;;5.25;88.53
58843;BME280;44614;54.356;10.100;2022-09-21T05:16:34;102421.50;;;5.25;88.72
58843;BME280;44614;54.356;10.100;2022-09-21T05:18:59;102421.50;;;5.25;88.71
58843;BME280;44614;54.356;10.100;2022-09-21T05:21:25;102424.97;;;5.27;88.76
58843;BME280;44614;54.356;10.100;2022-09-21T05:23:50;102425.94;;;5.26;88.99
58843;BME280;44614;54.356;10.100;2022-09-21T05:26:16;102424.25;;;5.25;89.09
58843;BME280;44614;54.356;10.100;2022-09-21T05:28:41;102431.41;;;5.26;89.31
58843;BME280;44614;54.356;10.100;2022-09-21T05:33:36;102434.00;;;5.27;89.27
58843;BME280;44614;54.356;10.100;2022-09-21T05:38:28;102432.81;;;5.30;89.53
58843;BME280;44614;54.356;10.100;2022-09-21T05:40:53;102434.38;;;5.32;89.54
58843;BME280;44614;54.356;10.100;2022-09-21T05:43:19;102429.78;;;5.33;89.85
58843;BME280;44614;54.356;10.100;2022-09-21T05:45:45;102429.50;;;5.36;89.82
58843;BME280;44614;54.356;10.100;2022-09-21T05:48:18;102427.50;;;5.38;90.04
58843;BME280;44614;54.356;10.100;2022-09-21T05:51:05;102427.16;;;5.41;90.25
58843;BME280;44614;54.356;10.100;2022-09-21T05:59:09;102432.13;;;5.55;91.08
58843;BME280;44614;54.356;10.100;2022-09-21T06:04:20;102436.91;;;5.71;91.13
58843;BME280;44614;54.356;10.100;2022-09-21T06:06:46;102431.72;;;5.78;91.23
58843;BME280;44614;54.356;10.100;2022-09-21T06:09:11;102425.50;;;5.85;91.08
58843;BME280;44614;54.356;10.100;2022-09-21T06:11:36;102436.34;;;5.95;91.31
58843;BME280;44614;54.356;10.100;2022-09-21T06:14:01;102437.31;;;6.04;91.33
58843;BME280;44614;54.356;10.100;2022-09-21T06:16:35;102438.97;;;6.15;91.69
58843;BME280;44614;54.356;10.100;2022-09-21T06:19:00;102440.47;;;6.27;91.73
58843;BME280;44614;54.356;10.100;2022-09-21T06:21:25;102441.22;;;6.37;91.79
58843;BME280;44614;54.356;10.100;2022-09-21T06:23:51;102436.53;;;6.47;91.96
58843;BME280;44614;54.356;10.100;2022-09-21T06:26:16;102442.47;;;6.61;92.13
58843;BME280;44614;54.356;10.100;2022-09-21T06:28:41;102441.88;;;6.75;92.40
58843;BME280;44614;54.356;10.100;2022-09-21T06:31:06;102455.66;;;6.91;92.60
58843;BME280;44614;54.356;10.100;2022-09-21T06:33:32;102452.03;;;7.08;92.88
58843;BME280;44614;54.356;10.100;2022-09-21T06:35:59;102451.13;;;7.26;93.72
58843;BME280;44614;54.356;10.100;2022-09-21T06:38:25;102449.31;;;7.43;94.47
58843;BME280;44614;54.356;10.100;2022-09-21T06:40:50;102447.53;;;7.60;94.88
58843;BME280;44614;54.356;10.100;2022-09-21T06:43:16;102451.34;;;7.75;95.07
58843;BME280;44614;54.356;10.100;2022-09-21T06:45:41;102454.13;;;7.91;95.34
58843;BME280;44614;54.356;10.100;2022-09-21T06:48:07;102443.41;;;8.06;95.81
58843;BME280;44614;54.356;10.100;2022-09-21T06:50:32;102453.53;;;8.22;95.84
58843;BME280;44614;54.356;10.100;2022-09-21T06:53:01;102452.00;;;8.36;95.78
58843;BME280;44614;54.356;10.100;2022-09-21T06:55:26;102448.94;;;8.47;96.21
58843;BME280;44614;54.356;10.100;2022-09-21T06:57:52;102460.44;;;8.59;96.88
58843;BME280;44614;54.356;10.100;2022-09-21T07:00:18;102465.22;;;8.73;97.06
58843;BME280;44614;54.356;10.100;2022-09-21T07:02:44;102469.81;;;8.89;97.34
58843;BME280;44614;54.356;10.100;2022-09-21T07:05:12;102467.25;;;9.03;97.15
58843;BME280;44614;54.356;10.100;2022-09-21T07:07:37;102460.03;;;9.19;97.05
58843;BME280;44614;54.356;10.100;2022-09-21T07:10:02;102462.56;;;9.37;97.21
58843;BME280;44614;54.356;10.100;2022-09-21T07:12:28;102464.75;;;9.49;96.64
58843;BME280;44614;54.356;10.100;2022-09-21T07:14:59;102464.00;;;9.64;96.26
58843;BME280;44614;54.356;10.100;2022-09-21T07:17:24;102466.91;;;9.70;95.60
58843;BME280;44614;54.356;10.100;2022-09-21T07:19:51;102467.72;;;9.79;95.14
58843;BME280;44614;54.356;10.100;2022-09-21T07:22:16;102463.91;;;9.88;94.73
58843;BME280;44614;54.356;10.100;2022-09-21T07:24:41;102471.06;;;9.97;94.58
58843;BME280;44614;54.356;10.100;2022-09-21T07:27:07;102473.06;;;10.12;94.63
58843;BME280;44614;54.356;10.100;2022-09-21T07:29:32;102467.50;;;10.20;94.55
58843;BME280;44614;54.356;10.100;2022-09-21T07:31:57;102473.13;;;10.35;94.34
58843;BME280;44614;54.356;10.100;2022-09-21T07:34:22;102469.75;;;10.47;94.24
58843;BME280;44614;54.356;10.100;2022-09-21T07:36:48;102473.28;;;10.56;94.21
58843;BME280;44614;54.356;10.100;2022-09-21T07:39:13;102482.34;;;10.65;93.98
58843;BME280;44614;54.356;10.100;2022-09-21T07:41:38;102469.25;;;10.67;93.68
58843;BME280;44614;54.356;10.100;2022-09-21T07:44:03;102500.16;;;10.69;93.41
58843;BME280;44614;54.356;10.100;2022-09-21T07:46:28;102479.31;;;10.74;93.62
58843;BME280;44614;54.356;10.100;2022-09-21T07:48:54;102468.47;;;10.81;93.63
58843;BME280;44614;54.356;10.100;2022-09-21T07:51:20;102472.53;;;10.85;93.73
58843;BME280;44614;54.356;10.100;2022-09-21T07:53:45;102473.69;;;10.91;93.69
58843;BME280;44614;54.356;10.100;2022-09-21T07:56:14;102456.91;;;10.86;93.12
58843;BME280;44614;54.356;10.100;2022-09-21T07:58:40;102474.41;;;11.08;92.75
58843;BME280;44614;54.356;10.100;2022-09-21T08:01:25;102475.94;;;11.25;92.86
58843;BME280;44614;54.356;10.100;2022-09-21T08:03:51;102472.25;;;11.33;92.11
58843;BME280;44614;54.356;10.100;2022-09-21T08:06:17;102474.03;;;11.40;91.64
58843;BME280;44614;54.356;10.100;2022-09-21T08:08:42;102477.94;;;11.46;91.26
58843;BME280;44614;54.356;10.100;2022-09-21T08:11:08;102475.94;;;11.55;91.08
58843;BME280;44614;54.356;10.100;2022-09-21T08:13:36;102475.69;;;11.64;90.82
58843;BME280;44614;54.356;10.100;2022-09-21T08:16:01;102476.81;;;11.70;90.17
58843;BME280;44614;54.356;10.100;2022-09-21T08:18:27;102470.16;;;11.79;89.73
58843;BME280;44614;54.356;10.100;2022-09-21T08:20:53;102477.28;;;11.88;89.26
58843;BME280;44614;54.356;10.100;2022-09-21T08:23:19;102481.16;;;11.94;87.92
58843;BME280;44614;54.356;10.100;2022-09-21T08:25:44;102480.03;;;12.03;86.81
58843;BME280;44614;54.356;10.100;2022-09-21T08:28:09;102468.31;;;12.16;86.61
58843;BME280;44614;54.356;10.100;2022-09-21T08:30:35;102478.19;;;12.25;85.54
58843;BME280;44614;54.356;10.100;2022-09-21T08:33:00;102476.16;;;12.34;85.02
58843;BME280;44614;54.356;10.100;2022-09-21T08:35:26;102473.72;;;12.46;84.95
58843;BME280;44614;54.356;10.100;2022-09-21T08:37:52;102483.84;;;12.60;84.82
58843;BME280;44614;54.356;10.100;2022-09-21T08:40:17;102481.59;;;12.70;82.77
58843;BME280;44614;54.356;10.100;2022-09-21T08:45:16;102477.91;;;12.84;81.67
58843;BME280;44614;54.356;10.100;2022-09-21T08:52:57;102478.53;;;13.08;78.02
58843;BME280;44614;54.356;10.100;2022-09-21T08:55:24;102481.41;;;13.21;77.83
58843;BME280;44614;54.356;10.100;2022-09-21T08:57:50;102486.59;;;13.31;77.06
58843;BME280;44614;54.356;10.100;2022-09-21T09:00:16;102485.59;;;13.38;76.31
58843;BME280;44614;54.356;10.100;2022-09-21T09:20:46;102484.75;;;14.21;73.27
58843;BME280;44614;54.356;10.100;2022-09-21T09:23:19;102487.31;;;14.29;73.23
58843;BME280;44614;54.356;10.100;2022-09-21T09:25:49;102483.09;;;14.39;72.49
58843;BME280;44614;54.356;10.100;2022-09-21T09:28:27;102486.06;;;14.45;71.00
58843;BME280;44614;54.356;10.100;2022-09-21T09:30:55;102482.06;;;14.47;70.98
58843;BME280;44614;54.356;10.100;2022-09-21T09:33:23;102490.63;;;14.66;71.87
58843;BME280;44614;54.356;10.100;2022-09-21T09:35:58;102484.47;;;14.83;72.26
58843;BME280;44614;54.356;10.100;2022-09-21T09:46:07;102480.22;;;14.81;69.03
58843;BME280;44614;54.356;10.100;2022-09-21T09:48:39;102480.22;;;14.94;66.82
58843;BME280;44614;54.356;10.100;2022-09-21T09:51:10;102481.09;;;15.08;66.52
58843;BME280;44614;54.356;10.100;2022-09-21T09:53:36;102489.59;;;15.20;64.81
58843;BME280;44614;54.356;10.100;2022-09-21T09:56:01;102482.13;;;15.14;63.36
58843;BME280;44614;54.356;10.100;2022-09-21T09:58:47;102485.97;;;15.13;64.22
58843;BME280;44614;54.356;10.100;2022-09-21T10:04:05;102490.84;;;15.17;63.66
58843;BME280;44614;54.356;10.100;2022-09-21T10:06:31;102483.81;;;15.34;64.92
58843;BME280;44614;54.356;10.100;2022-09-21T10:08:57;102482.09;;;15.47;63.75
58843;BME280;44614;54.356;10.100;2022-09-21T10:11:22;102486.38;;;15.43;61.79
58843;BME280;44614;54.356;10.100;2022-09-21T10:14:05;102485.94;;;15.46;60.38
58843;BME280;44614;54.356;10.100;2022-09-21T10:16:30;102486.38;;;15.43;60.76
58843;BME280;44614;54.356;10.100;2022-09-21T10:18:57;102483.97;;;15.53;61.64
58843;BME280;44614;54.356;10.100;2022-09-21T10:24:00;102484.81;;;15.60;62.08
58843;BME280;44614;54.356;10.100;2022-09-21T10:26:30;102476.78;;;15.65;60.74
58843;BME280;44614;54.356;10.100;2022-09-21T10:29:38;102471.41;;;15.70;60.39
58843;BME280;44614;54.356;10.100;2022-09-21T10:32:02;102475.84;;;15.84;61.71
58843;BME280;44614;54.356;10.100;2022-09-21T10:34:29;102466.66;;;15.91;58.64
58843;BME280;44614;54.356;10.100;2022-09-21T10:36:55;102469.47;;;15.84;59.84
58843;BME280;44614;54.356;10.100;2022-09-21T10:39:30;102461.56;;;15.88;58.34
58843;BME280;44614;54.356;10.100;2022-09-21T10:44:22;102467.13;;;15.81;59.88
58843;BME280;44614;54.356;10.100;2022-09-21T10:46:48;102470.75;;;15.81;57.74
58843;BME280;44614;54.356;10.100;2022-09-21T10:49:26;102465.84;;;15.83;59.36
58843;BME280;44614;54.356;10.100;2022-09-21T10:51:53;102454.97;;;15.82;56.27
58843;BME280;44614;54.356;10.100;2022-09-21T10:54:22;102463.09;;;15.77;54.21
58843;BME280;44614;54.356;10.100;2022-09-21T10:56:52;102453.94;;;15.76;54.82
58843;BME280;44614;54.356;10.100;2022-09-21T11:01:46;102452.84;;;15.77;55.73
58843;BME280;44614;54.356;10.100;2022-09-21T11:04:20;102442.34;;;15.93;57.25
58843;BME280;44614;54.356;10.100;2022-09-21T11:06:47;102448.06;;;15.98;56.22
58843;BME280;44614;54.356;10.100;2022-09-21T11:09:26;102449.75;;;16.05;56.14
58843;BME280;44614;54.356;10.100;2022-09-21T11:19:36;102447.94;;;15.79;49.57
58843;BME280;44614;54.356;10.100;2022-09-21T11:24:36;102442.78;;;15.90;50.42
58843;BME280;44614;54.356;10.100;2022-09-21T11:29:33;102445.94;;;16.06;49.50
58843;BME280;44614;54.356;10.100;2022-09-21T11:34:51;102445.09;;;15.99;49.06
58843;BME280;44614;54.356;10.100;2022-09-21T11:37:24;102444.59;;;16.16;52.51
58843;BME280;44614;54.356;10.100;2022-09-21T12:00:06;102439.34;;;16.32;54.56
58843;BME280;44614;54.356;10.100;2022-09-21T12:10:45;102445.94;;;16.70;54.37
58843;BME280;44614;54.356;10.100;2022-09-21T12:18:16;102427.78;;;17.42;48.81
58843;BME280;44614;54.356;10.100;2022-09-21T12:23:13;102420.16;;;17.93;45.52
58843;BME280;44614;54.356;10.100;2022-09-21T12:25:41;102423.13;;;18.10;45.07
58843;BME280;44614;54.356;10.100;2022-09-21T12:30:59;102406.81;;;19.20;46.40
58843;BME280;44614;54.356;10.100;2022-09-21T12:36:01;102406.94;;;20.18;45.60
58843;BME280;44614;54.356;10.100;2022-09-21T12:38:29;102410.34;;;20.65;42.72
58843;BME280;44614;54.356;10.100;2022-09-21T12:48:41;102390.84;;;22.09;40.71
58843;BME280;44614;54.356;10.100;2022-09-21T12:53:35;102380.63;;;22.79;38.57
58843;BME280;44614;54.356;10.100;2022-09-21T12:56:09;102383.34;;;22.69;39.58
58843;BME280;44614;54.356;10.100;2022-09-21T13:03:41;102375.09;;;22.52;39.96
58843;BME280;44614;54.356;10.100;2022-09-21T13:08:53;102370.78;;;22.71;37.21
58843;BME280;44614;54.356;10.100;2022-09-21T13:11:19;102372.44;;;23.04;39.35
58843;BME280;44614;54.356;10.100;2022-09-21T13:13:46;102370.53;;;23.15;38.14
58843;BME280;44614;54.356;10.100;2022-09-21T13:16:26;102359.25;;;23.00;37.55
58843;BME280;44614;54.356;10.100;2022-09-21T13:18:54;102366.97;;;23.25;38.38
58843;BME280;44614;54.356;10.100;2022-09-21T13:21:22;102360.13;;;23.63;38.53
58843;BME280;44614;54.356;10.100;2022-09-21T13:23:52;102357.50;;;23.41;36.53
58843;BME280;44614;54.356;10.100;2022-09-21T13:26:27;102365.31;;;23.34;37.89
58843;BME280;44614;54.356;10.100;2022-09-21T13:28:59;102362.66;;;23.59;36.51
58843;BME280;44614;54.356;10.100;2022-09-21T13:34:14;102363.38;;;24.02;37.07
58843;BME280;44614;54.356;10.100;2022-09-21T13:36:43;102354.44;;;24.16;36.17
58843;BME280;44614;54.356;10.100;2022-09-21T13:41:34;102349.84;;;23.74;36.34
58843;BME280;44614;54.356;10.100;2022-09-21T13:44:03;102348.03;;;23.47;34.41
58843;BME280;44614;54.356;10.100;2022-09-21T13:51:31;102350.13;;;23.77;36.15
58843;BME280;44614;54.356;10.100;2022-09-21T13:53:57;102348.75;;;23.95;36.28
58843;BME280;44614;54.356;10.100;2022-09-21T13:56:25;102343.50;;;24.24;37.43
58843;BME280;44614;54.356;10.100;2022-09-21T13:58:51;102348.00;;;24.56;36.01
58843;BME280;44614;54.356;10.100;2022-09-21T14:01:20;102342.69;;;24.70;34.65
58843;BME280;44614;54.356;10.100;2022-09-21T14:03:48;102344.09;;;24.47;34.76
58843;BME280;44614;54.356;10.100;2022-09-21T14:06:16;102340.38;;;24.11;35.63
58843;BME280;44614;54.356;10.100;2022-09-21T14:09:02;102336.16;;;23.35;35.86
58843;BME280;44614;54.356;10.100;2022-09-21T14:18:58;102330.34;;;22.25;39.30
58843;BME280;44614;54.356;10.100;2022-09-21T14:21:23;102340.25;;;22.10;40.50
58843;BME280;44614;54.356;10.100;2022-09-21T14:28:57;102330.47;;;21.37;40.04
58843;BME280;44614;54.356;10.100;2022-09-21T14:31:28;102333.94;;;21.27;40.85
58843;BME280;44614;54.356;10.100;2022-09-21T14:33:55;102334.56;;;21.12;40.16
58843;BME280;44614;54.356;10.100;2022-09-21T14:36:25;102335.84;;;21.05;41.60
58843;BME280;44614;54.356;10.100;2022-09-21T14:38:55;102332.06;;;20.94;41.46
58843;BME280;44614;54.356;10.100;2022-09-21T14:41:24;102333.53;;;20.80;41.27
58843;BME280;44614;54.356;10.100;2022-09-21T14:43:52;102332.28;;;20.71;41.73
58843;BME280;44614;54.356;10.100;2022-09-21T15:06:41;102324.41;;;19.48;48.22
58843;BME280;44614;54.356;10.100;2022-09-21T15:12:40;102327.00;;;19.26;46.36
58843;BME280;44614;54.356;10.100;2022-09-21T15:17:54;102320.63;;;19.02;48.74
58843;BME280;44614;54.356;10.100;2022-09-21T15:20:21;102319.41;;;18.98;47.95
58843;BME280;44614;54.356;10.100;2022-09-21T15:22:52;102316.63;;;18.98;48.80
58843;BME280;44614;54.356;10.100;2022-09-21T15:25:17;102315.06;;;18.90;47.94
58843;BME280;44614;54.356;10.100;2022-09-21T15:27:43;102320.53;;;18.85;48.16
58843;BME280;44614;54.356;10.100;2022-09-21T15:30:20;102312.66;;;18.82;48.68
58843;BME280;44614;54.356;10.100;2022-09-21T15:32:46;102319.44;;;18.74;49.37
58843;BME280;44614;54.356;10.100;2022-09-21T15:35:25;102313.31;;;18.54;49.73
58843;BME280;44614;54.356;10.100;2022-09-21T15:37:55;102311.53;;;18.48;51.34
58843;BME280;44614;54.356;10.100;2022-09-21T15:40:24;102312.84;;;18.45;51.91
58843;BME280;44614;54.356;10.100;2022-09-21T15:43:00;102314.03;;;18.38;51.79
58843;BME280;44614;54.356;10.100;2022-09-21T15:45:29;102304.38;;;18.29;52.08
58843;BME280;44614;54.356;10.100;2022-09-21T15:47:58;102312.34;;;18.25;52.71
58843;BME280;44614;54.356;10.100;2022-09-21T15:50:23;102306.50;;;18.15;52.15
58843;BME280;44614;54.356;10.100;2022-09-21T15:52:57;102310.00;;;18.10;52.41
58843;BME280;44614;54.356;10.100;2022-09-21T15:55:23;102306.00;;;18.06;53.38
58843;BME280;44614;54.356;10.100;2022-09-21T15:57:49;102308.28;;;17.97;53.63
58843;BME280;44614;54.356;10.100;2022-09-21T16:02:41;102312.09;;;17.85;54.57
58843;BME280;44614;54.356;10.100;2022-09-21T16:05:10;102309.41;;;17.78;54.68
58843;BME280;44614;54.356;10.100;2022-09-21T16:07:38;102312.34;;;17.65;55.44
58843;BME280;44614;54.356;10.100;2022-09-21T16:10:37;102312.75;;;17.50;55.58
58843;BME280;44614;54.356;10.100;2022-09-21T16:15:58;102313.16;;;17.35;56.28
58843;BME280;44614;54.356;10.100;2022-09-21T16:18:28;102320.25;;;17.31;56.98
58843;BME280;44614;54.356;10.100;2022-09-21T16:20:56;102315.47;;;17.20;57.63
58843;BME280;44614;54.356;10.100;2022-09-21T16:23:31;102310.00;;;17.13;58.65